sensor_id;sensor_type;location;lat;lon;timestamp;P1;durP1;ratioP1;P2;durP2;ratioP2
79574;SDS011;69044;48.198;11.468;2023-11-22T00:00:21;10.63;;;4.57;;
79574;SDS011;69044;48.198;11.468;2023-11-22T00:02:50;9.73;;;4.65;;
79574;SDS011;69044;48.198;11.468;2023-11-22T00:07:44;8.43;;;4.40;;
79574;SDS011;69044;48.198;11.468;2023-11-22T00:10:11;8.15;;;4.22;;
79574;SDS011;69044;48.198;11.468;2023-11-22T00:12:39;10.85;;;4.70;;
79574;SDS011;69044;48.198;11.468;2023-11-22T00:15:07;7.10;;;4.05;;
79574;SDS011;69044;48.198;11.468;2023-11-22T00:17:36;8.15;;;4.30;;
79574;SDS011;69044;48.198;11.468;2023-11-22T00:20:05;6.68;;;3.65;;
79574;SDS011;69044;48.198;11.468;2023-11-22T00:22:34;9.23;;;4.53;;
79574;SDS011;69044;48.198;11.468;2023-11-22T00:25:01;9.82;;;4.90;;
79574;SDS011;69044;48.198;11.468;2023-11-22T00:27:29;8.95;;;4.40;;
79574;SDS011;69044;48.198;11.468;2023-11-22T00:29:57;9.98;;;4.57;;
79574;SDS011;69044;48.198;11.468;2023-11-22T00:32:24;12.35;;;5.57;;
79574;SDS011;69044;48.198;11.468;2023-11-22T00:34:52;9.60;;;4.50;;
79574;SDS011;69044;48.198;11.468;2023-11-22T00:37:20;9.65;;;4.32;;
79574;SDS011;69044;48.198;11.468;2023-11-22T00:39:48;7.32;;;4.22;;
79574;SDS011;69044;48.198;11.468;2023-11-22T00:42:15;8.93;;;4.80;;
79574;SDS011;69044;48.198;11.468;2023-11-22T00:44:45;8.82;;;4.20;;
79574;SDS011;69044;48.198;11.468;2023-11-22T00:47:12;11.75;;;4.95;;
79574;SDS011;69044;48.198;11.468;2023-11-22T00:49:42;8.38;;;4.20;;
79574;SDS011;69044;48.198;11.468;2023-11-22T00:52:09;8.82;;;4.47;;
79574;SDS011;69044;48.198;11.468;2023-11-22T00:54:37;9.75;;;5.22;;
79574;SDS011;69044;48.198;11.468;2023-11-22T00:57:04;12.57;;;5.60;;
79574;SDS011;69044;48.198;11.468;2023-11-22T00:59:32;12.40;;;5.30;;
79574;SDS011;69044;48.198;11.468;2023-11-22T01:01:59;11.35;;;5.15;;
79574;SDS011;69044;48.198;11.468;2023-11-22T01:04:28;9.15;;;4.30;;
79574;SDS011;69044;48.198;11.468;2023-11-22T01:06:55;10.63;;;5.05;;
79574;SDS011;69044;48.198;11.468;2023-11-22T01:09:22;14.45;;;5.07;;
79574;SDS011;69044;48.198;11.468;2023-11-22T01:11:51;10.57;;;4.60;;
79574;SDS011;69044;48.198;11.468;2023-11-22T01:14:18;10.52;;;4.95;;
79574;SDS011;69044;48.198;11.468;2023-11-22T01:16:45;11.57;;;5.53;;
79574;SDS011;69044;48.198;11.468;2023-11-22T01:19:12;10.80;;;5.05;;
79574;SDS011;69044;48.198;11.468;2023-11-22T01:21:39;8.10;;;4.03;;
79574;SDS011;69044;48.198;11.468;2023-11-22T01:24:07;12.15;;;5.47;;
79574;SDS011;69044;48.198;11.468;2023-11-22T01:26:34;10.60;;;4.82;;
79574;SDS011;69044;48.198;11.468;2023-11-22T01:29:04;10.02;;;4.28;;
79574;SDS011;69044;48.198;11.468;2023-11-22T01:33:58;8.88;;;4.57;;
79574;SDS011;69044;48.198;11.468;2023-11-22T01:36:25;11.82;;;4.68;;
79574;SDS011;69044;48.198;11.468;2023-11-22T01:38:53;10.02;;;5.18;;
79574;SDS011;69044;48.198;11.468;2023-11-22T01:41:21;11.25;;;5.32;;
79574;SDS011;69044;48.198;11.468;2023-11-22T01:43:48;10.35;;;4.82;;
79574;SDS011;69044;48.198;11.468;2023-11-22T01:46:22;12.13;;;5.18;;
79574;SDS011;69044;48.198;11.468;2023-11-22T01:48:51;11.73;;;5.03;;
79574;SDS011;69044;48.198;11.468;2023-11-22T01:51:19;10.90;;;4.90;;
79574;SDS011;69044;48.198;11.468;2023-11-22T01:53:47;11.98;;;4.85;;
79574;SDS011;69044;48.198;11.468;2023-11-22T01:56:14;11.27;;;5.10;;
79574;SDS011;69044;48.198;11.468;2023-11-22T01:58:42;9.40;;;4.63;;
79574;SDS011;69044;48.198;11.468;2023-11-22T02:01:10;8.65;;;3.63;;
79574;SDS011;69044;48.198;11.468;2023-11-22T02:03:39;5.45;;;3.45;;
79574;SDS011;69044;48.198;11.468;2023-11-22T02:06:07;5.90;;;3.65;;
79574;SDS011;69044;48.198;11.468;2023-11-22T02:08:35;6.32;;;3.58;;
79574;SDS011;69044;48.198;11.468;2023-11-22T02:11:02;5.80;;;3.80;;
79574;SDS011;69044;48.198;11.468;2023-11-22T02:13:30;4.50;;;2.90;;
79574;SDS011;69044;48.198;11.468;2023-11-22T02:15:57;4.50;;;3.00;;
79574;SDS011;69044;48.198;11.468;2023-11-22T02:18:25;4.20;;;2.63;;
79574;SDS011;69044;48.198;11.468;2023-11-22T02:20:54;3.80;;;2.40;;
79574;SDS011;69044;48.198;11.468;2023-11-22T02:25:49;5.85;;;2.88;;
79574;SDS011;69044;48.198;11.468;2023-11-22T02:28:16;4.45;;;2.33;;
79574;SDS011;69044;48.198;11.468;2023-11-22T02:30:43;5.15;;;2.35;;
79574;SDS011;69044;48.198;11.468;2023-11-22T02:33:11;3.47;;;1.92;;
79574;SDS011;69044;48.198;11.468;2023-11-22T02:35:38;3.63;;;2.28;;
79574;SDS011;69044;48.198;11.468;2023-11-22T02:38:06;5.07;;;2.10;;
79574;SDS011;69044;48.198;11.468;2023-11-22T02:40:35;3.58;;;1.98;;
79574;SDS011;69044;48.198;11.468;2023-11-22T02:43:02;3.53;;;1.90;;
79574;SDS011;69044;48.198;11.468;2023-11-22T02:45:33;5.07;;;2.47;;
79574;SDS011;69044;48.198;11.468;2023-11-22T02:48:00;3.20;;;1.90;;
79574;SDS011;69044;48.198;11.468;2023-11-22T02:50:29;3.38;;;2.00;;
79574;SDS011;69044;48.198;11.468;2023-11-22T02:52:57;2.90;;;1.70;;
79574;SDS011;69044;48.198;11.468;2023-11-22T02:55:26;3.15;;;1.63;;
79574;SDS011;69044;48.198;11.468;2023-11-22T02:57:54;2.85;;;1.75;;
79574;SDS011;69044;48.198;11.468;2023-11-22T03:00:24;3.50;;;2.08;;
79574;SDS011;69044;48.198;11.468;2023-11-22T03:02:51;2.92;;;1.60;;
79574;SDS011;69044;48.198;11.468;2023-11-22T03:05:19;2.63;;;1.73;;
79574;SDS011;69044;48.198;11.468;2023-11-22T03:07:47;2.42;;;1.52;;
79574;SDS011;69044;48.198;11.468;2023-11-22T03:10:18;3.05;;;1.70;;
79574;SDS011;69044;48.198;11.468;2023-11-22T03:12:45;3.38;;;1.92;;
79574;SDS011;69044;48.198;11.468;2023-11-22T03:15:14;3.40;;;1.90;;
79574;SDS011;69044;48.198;11.468;2023-11-22T03:17:42;3.88;;;1.80;;
79574;SDS011;69044;48.198;11.468;2023-11-22T03:20:10;3.78;;;1.83;;
79574;SDS011;69044;48.198;11.468;2023-11-22T03:22:37;3.95;;;1.75;;
79574;SDS011;69044;48.198;11.468;2023-11-22T03:25:05;4.10;;;2.08;;
79574;SDS011;69044;48.198;11.468;2023-11-22T03:27:35;3.55;;;1.92;;
79574;SDS011;69044;48.198;11.468;2023-11-22T03:30:03;3.42;;;1.92;;
79574;SDS011;69044;48.198;11.468;2023-11-22T03:32:32;3.72;;;2.08;;
79574;SDS011;69044;48.198;11.468;2023-11-22T03:35:02;3.33;;;1.90;;
79574;SDS011;69044;48.198;11.468;2023-11-22T03:37:31;3.50;;;1.85;;
79574;SDS011;69044;48.198;11.468;2023-11-22T03:39:58;4.40;;;2.13;;
79574;SDS011;69044;48.198;11.468;2023-11-22T03:42:25;3.90;;;2.10;;
79574;SDS011;69044;48.198;11.468;2023-11-22T03:44:53;3.28;;;1.80;;
79574;SDS011;69044;48.198;11.468;2023-11-22T03:47:20;4.55;;;1.88;;
79574;SDS011;69044;48.198;11.468;2023-11-22T03:49:48;5.80;;;2.03;;
79574;SDS011;69044;48.198;11.468;2023-11-22T03:52:15;3.97;;;1.75;;
79574;SDS011;69044;48.198;11.468;2023-11-22T03:54:43;4.78;;;2.28;;
79574;SDS011;69044;48.198;11.468;2023-11-22T03:57:10;4.15;;;2.00;;
79574;SDS011;69044;48.198;11.468;2023-11-22T03:59:37;4.05;;;2.10;;
79574;SDS011;69044;48.198;11.468;2023-11-22T04:02:04;4.38;;;2.10;;
79574;SDS011;69044;48.198;11.468;2023-11-22T04:04:32;3.78;;;2.00;;
79574;SDS011;69044;48.198;11.468;2023-11-22T04:07:00;4.10;;;2.30;;
79574;SDS011;69044;48.198;11.468;2023-11-22T04:09:28;3.63;;;2.03;;
79574;SDS011;69044;48.198;11.468;2023-11-22T04:11:55;3.10;;;1.63;;
79574;SDS011;69044;48.198;11.468;2023-11-22T04:14:22;3.20;;;1.80;;
79574;SDS011;69044;48.198;11.468;2023-11-22T04:16:50;3.47;;;1.92;;
79574;SDS011;69044;48.198;11.468;2023-11-22T04:19:17;3.17;;;1.80;;
79574;SDS011;69044;48.198;11.468;2023-11-22T04:21:44;2.92;;;1.60;;
79574;SDS011;69044;48.198;11.468;2023-11-22T04:24:13;4.05;;;1.88;;
79574;SDS011;69044;48.198;11.468;2023-11-22T04:26:40;3.65;;;1.83;;
79574;SDS011;69044;48.198;11.468;2023-11-22T04:29:07;4.40;;;1.90;;
79574;SDS011;69044;48.198;11.468;2023-11-22T04:31:34;2.78;;;1.58;;
79574;SDS011;69044;48.198;11.468;2023-11-22T04:34:01;2.75;;;1.42;;
79574;SDS011;69044;48.198;11.468;2023-11-22T04:36:28;3.05;;;1.83;;
79574;SDS011;69044;48.198;11.468;2023-11-22T04:38:56;4.45;;;2.03;;
79574;SDS011;69044;48.198;11.468;2023-11-22T04:41:24;3.50;;;1.70;;
79574;SDS011;69044;48.198;11.468;2023-11-22T04:43:52;3.83;;;1.88;;
79574;SDS011;69044;48.198;11.468;2023-11-22T04:46:19;3.88;;;1.88;;
79574;SDS011;69044;48.198;11.468;2023-11-22T04:48:46;3.30;;;1.88;;
79574;SDS011;69044;48.198;11.468;2023-11-22T04:51:16;3.10;;;1.58;;
79574;SDS011;69044;48.198;11.468;2023-11-22T04:53:44;3.55;;;1.85;;
79574;SDS011;69044;48.198;11.468;2023-11-22T04:56:11;3.58;;;1.80;;
79574;SDS011;69044;48.198;11.468;2023-11-22T04:58:39;3.03;;;1.67;;
79574;SDS011;69044;48.198;11.468;2023-11-22T05:01:07;2.95;;;1.63;;
79574;SDS011;69044;48.198;11.468;2023-11-22T05:03:36;3.28;;;1.92;;
79574;SDS011;69044;48.198;11.468;2023-11-22T05:06:03;3.58;;;1.95;;
79574;SDS011;69044;48.198;11.468;2023-11-22T05:08:31;3.38;;;2.10;;
79574;SDS011;69044;48.198;11.468;2023-11-22T05:10:58;3.00;;;1.65;;
79574;SDS011;69044;48.198;11.468;2023-11-22T05:13:25;2.42;;;1.30;;
79574;SDS011;69044;48.198;11.468;2023-11-22T05:15:54;2.80;;;1.70;;
79574;SDS011;69044;48.198;11.468;2023-11-22T05:18:21;2.67;;;1.50;;
79574;SDS011;69044;48.198;11.468;2023-11-22T05:20:48;2.88;;;1.70;;
79574;SDS011;69044;48.198;11.468;2023-11-22T05:23:15;2.97;;;1.80;;
79574;SDS011;69044;48.198;11.468;2023-11-22T05:25:42;2.85;;;1.70;;
79574;SDS011;69044;48.198;11.468;2023-11-22T05:28:09;2.80;;;1.52;;
79574;SDS011;69044;48.198;11.468;2023-11-22T05:30:36;2.85;;;1.58;;
79574;SDS011;69044;48.198;11.468;2023-11-22T05:33:05;2.78;;;1.50;;
79574;SDS011;69044;48.198;11.468;2023-11-22T05:35:32;2.65;;;1.50;;
79574;SDS011;69044;48.198;11.468;2023-11-22T05:38:00;3.08;;;1.58;;
79574;SDS011;69044;48.198;11.468;2023-11-22T05:40:28;2.65;;;1.55;;
79574;SDS011;69044;48.198;11.468;2023-11-22T05:42:56;3.63;;;2.17;;
79574;SDS011;69044;48.198;11.468;2023-11-22T05:45:23;3.00;;;1.60;;
79574;SDS011;69044;48.198;11.468;2023-11-22T05:47:50;3.35;;;1.88;;
79574;SDS011;69044;48.198;11.468;2023-11-22T05:50:19;3.70;;;1.80;;
79574;SDS011;69044;48.198;11.468;2023-11-22T05:52:46;2.97;;;1.55;;
79574;SDS011;69044;48.198;11.468;2023-11-22T05:55:13;3.45;;;1.75;;
79574;SDS011;69044;48.198;11.468;2023-11-22T05:57:41;3.40;;;1.73;;
79574;SDS011;69044;48.198;11.468;2023-11-22T06:00:08;3.70;;;2.10;;
79574;SDS011;69044;48.198;11.468;2023-11-22T06:02:36;2.97;;;1.65;;
79574;SDS011;69044;48.198;11.468;2023-11-22T06:05:04;2.67;;;1.65;;
79574;SDS011;69044;48.198;11.468;2023-11-22T06:07:34;3.72;;;2.08;;
79574;SDS011;69044;48.198;11.468;2023-11-22T06:10:01;3.13;;;1.73;;
79574;SDS011;69044;48.198;11.468;2023-11-22T06:12:28;3.05;;;1.73;;
79574;SDS011;69044;48.198;11.468;2023-11-22T06:14:56;2.72;;;1.63;;
79574;SDS011;69044;48.198;11.468;2023-11-22T06:17:23;4.15;;;1.92;;
79574;SDS011;69044;48.198;11.468;2023-11-22T06:19:50;3.33;;;1.85;;
79574;SDS011;69044;48.198;11.468;2023-11-22T06:22:17;5.45;;;2.15;;
79574;SDS011;69044;48.198;11.468;2023-11-22T06:24:46;3.47;;;1.85;;
79574;SDS011;69044;48.198;11.468;2023-11-22T06:27:13;4.00;;;2.03;;
79574;SDS011;69044;48.198;11.468;2023-11-22T06:29:41;4.22;;;1.98;;
79574;SDS011;69044;48.198;11.468;2023-11-22T06:32:10;3.42;;;1.88;;
79574;SDS011;69044;48.198;11.468;2023-11-22T06:34:37;3.50;;;1.90;;
79574;SDS011;69044;48.198;11.468;2023-11-22T06:37:04;3.78;;;2.10;;
79574;SDS011;69044;48.198;11.468;2023-11-22T06:39:34;3.53;;;1.75;;
79574;SDS011;69044;48.198;11.468;2023-11-22T06:42:04;2.88;;;1.80;;
79574;SDS011;69044;48.198;11.468;2023-11-22T06:44:32;3.17;;;1.90;;
79574;SDS011;69044;48.198;11.468;2023-11-22T06:46:59;4.28;;;2.08;;
79574;SDS011;69044;48.198;11.468;2023-11-22T06:49:27;2.55;;;1.50;;
79574;SDS011;69044;48.198;11.468;2023-11-22T06:51:54;4.53;;;2.10;;
79574;SDS011;69044;48.198;11.468;2023-11-22T06:54:22;3.38;;;2.08;;
79574;SDS011;69044;48.198;11.468;2023-11-22T06:56:49;3.00;;;1.70;;
79574;SDS011;69044;48.198;11.468;2023-11-22T06:59:18;3.15;;;1.98;;
79574;SDS011;69044;48.198;11.468;2023-11-22T07:01:45;3.40;;;1.83;;
79574;SDS011;69044;48.198;11.468;2023-11-22T07:04:12;3.60;;;2.08;;
79574;SDS011;69044;48.198;11.468;2023-11-22T07:06:39;4.00;;;1.90;;
79574;SDS011;69044;48.198;11.468;2023-11-22T07:09:08;3.80;;;2.20;;
79574;SDS011;69044;48.198;11.468;2023-11-22T07:11:36;2.83;;;1.70;;
79574;SDS011;69044;48.198;11.468;2023-11-22T07:14:03;4.65;;;2.08;;
79574;SDS011;69044;48.198;11.468;2023-11-22T07:16:32;3.30;;;2.00;;
79574;SDS011;69044;48.198;11.468;2023-11-22T07:21:28;4.22;;;1.88;;
79574;SDS011;69044;48.198;11.468;2023-11-22T07:23:56;3.15;;;1.70;;
79574;SDS011;69044;48.198;11.468;2023-11-22T07:26:24;4.18;;;2.30;;
79574;SDS011;69044;48.198;11.468;2023-11-22T07:28:53;4.45;;;1.88;;
79574;SDS011;69044;48.198;11.468;2023-11-22T07:31:20;3.00;;;1.88;;
79574;SDS011;69044;48.198;11.468;2023-11-22T07:33:49;4.30;;;2.05;;
79574;SDS011;69044;48.198;11.468;2023-11-22T07:38:46;4.65;;;2.47;;
79574;SDS011;69044;48.198;11.468;2023-11-22T07:41:14;5.13;;;2.45;;
79574;SDS011;69044;48.198;11.468;2023-11-22T07:43:41;4.25;;;2.30;;
79574;SDS011;69044;48.198;11.468;2023-11-22T07:46:08;4.60;;;2.10;;
79574;SDS011;69044;48.198;11.468;2023-11-22T07:48:38;8.23;;;3.85;;
79574;SDS011;69044;48.198;11.468;2023-11-22T07:51:08;14.52;;;4.97;;
79574;SDS011;69044;48.198;11.468;2023-11-22T07:53:35;7.28;;;3.63;;
79574;SDS011;69044;48.198;11.468;2023-11-22T07:56:02;4.95;;;2.78;;
79574;SDS011;69044;48.198;11.468;2023-11-22T07:58:30;4.30;;;2.28;;
79574;SDS011;69044;48.198;11.468;2023-11-22T08:00:58;5.55;;;2.55;;
79574;SDS011;69044;48.198;11.468;2023-11-22T08:03:25;7.40;;;2.75;;
79574;SDS011;69044;48.198;11.468;2023-11-22T08:05:52;6.32;;;3.10;;
79574;SDS011;69044;48.198;11.468;2023-11-22T08:08:22;4.35;;;2.33;;
79574;SDS011;69044;48.198;11.468;2023-11-22T08:13:19;4.78;;;2.20;;
79574;SDS011;69044;48.198;11.468;2023-11-22T08:15:48;5.18;;;2.67;;
79574;SDS011;69044;48.198;11.468;2023-11-22T08:18:15;3.60;;;2.13;;
79574;SDS011;69044;48.198;11.468;2023-11-22T08:20:43;6.13;;;3.10;;
79574;SDS011;69044;48.198;11.468;2023-11-22T08:23:10;4.68;;;2.58;;
79574;SDS011;69044;48.198;11.468;2023-11-22T08:25:40;4.15;;;2.20;;
79574;SDS011;69044;48.198;11.468;2023-11-22T08:28:07;3.90;;;2.47;;
79574;SDS011;69044;48.198;11.468;2023-11-22T08:30:34;4.45;;;2.58;;
79574;SDS011;69044;48.198;11.468;2023-11-22T08:33:02;5.15;;;2.65;;
79574;SDS011;69044;48.198;11.468;2023-11-22T08:35:30;4.20;;;2.22;;
79574;SDS011;69044;48.198;11.468;2023-11-22T08:37:57;4.53;;;2.55;;
79574;SDS011;69044;48.198;11.468;2023-11-22T08:40:24;4.88;;;2.83;;
79574;SDS011;69044;48.198;11.468;2023-11-22T08:42:52;4.15;;;2.50;;
79574;SDS011;69044;48.198;11.468;2023-11-22T08:45:20;4.53;;;2.60;;
79574;SDS011;69044;48.198;11.468;2023-11-22T08:47:47;3.78;;;2.42;;
79574;SDS011;69044;48.198;11.468;2023-11-22T08:50:15;5.65;;;2.70;;
79574;SDS011;69044;48.198;11.468;2023-11-22T08:52:43;4.88;;;2.33;;
79574;SDS011;69044;48.198;11.468;2023-11-22T08:55:10;5.20;;;2.55;;
79574;SDS011;69044;48.198;11.468;2023-11-22T08:57:38;4.97;;;2.60;;
79574;SDS011;69044;48.198;11.468;2023-11-22T09:00:08;3.97;;;2.08;;
79574;SDS011;69044;48.198;11.468;2023-11-22T09:02:37;4.20;;;2.58;;
79574;SDS011;69044;48.198;11.468;2023-11-22T09:05:05;4.63;;;2.50;;
79574;SDS011;69044;48.198;11.468;2023-11-22T09:07:34;6.47;;;2.83;;
79574;SDS011;69044;48.198;11.468;2023-11-22T09:10:01;3.80;;;2.17;;
79574;SDS011;69044;48.198;11.468;2023-11-22T09:12:35;4.30;;;2.38;;
79574;SDS011;69044;48.198;11.468;2023-11-22T09:15:05;3.97;;;2.10;;
79574;SDS011;69044;48.198;11.468;2023-11-22T09:17:36;4.47;;;2.40;;
79574;SDS011;69044;48.198;11.468;2023-11-22T09:20:08;4.38;;;2.58;;
79574;SDS011;69044;48.198;11.468;2023-11-22T09:22:37;5.07;;;2.53;;
79574;SDS011;69044;48.198;11.468;2023-11-22T09:27:38;3.60;;;2.20;;
79574;SDS011;69044;48.198;11.468;2023-11-22T09:30:08;4.18;;;2.40;;
79574;SDS011;69044;48.198;11.468;2023-11-22T09:32:44;7.38;;;3.47;;
79574;SDS011;69044;48.198;11.468;2023-11-22T09:35:12;4.65;;;2.30;;
79574;SDS011;69044;48.198;11.468;2023-11-22T09:37:41;5.65;;;2.78;;
79574;SDS011;69044;48.198;11.468;2023-11-22T09:40:10;5.47;;;2.53;;
79574;SDS011;69044;48.198;11.468;2023-11-22T09:42:43;5.60;;;2.67;;
79574;SDS011;69044;48.198;11.468;2023-11-22T09:45:17;3.72;;;1.92;;
79574;SDS011;69044;48.198;11.468;2023-11-22T09:50:12;4.13;;;2.20;;
79574;SDS011;69044;48.198;11.468;2023-11-22T09:52:42;3.95;;;2.15;;
79574;SDS011;69044;48.198;11.468;2023-11-22T09:55:10;3.65;;;2.03;;
79574;SDS011;69044;48.198;11.468;2023-11-22T09:57:37;3.97;;;2.30;;
79574;SDS011;69044;48.198;11.468;2023-11-22T10:00:06;4.68;;;2.30;;
79574;SDS011;69044;48.198;11.468;2023-11-22T10:02:41;4.53;;;2.67;;
79574;SDS011;69044;48.198;11.468;2023-11-22T10:05:08;4.28;;;2.45;;
79574;SDS011;69044;48.198;11.468;2023-11-22T10:07:35;4.32;;;2.35;;
79574;SDS011;69044;48.198;11.468;2023-11-22T10:10:03;5.38;;;2.63;;
79574;SDS011;69044;48.198;11.468;2023-11-22T10:12:32;4.72;;;2.67;;
79574;SDS011;69044;48.198;11.468;2023-11-22T10:15:11;4.15;;;2.47;;
79574;SDS011;69044;48.198;11.468;2023-11-22T10:17:41;4.35;;;2.50;;
79574;SDS011;69044;48.198;11.468;2023-11-22T10:20:14;3.85;;;2.47;;
79574;SDS011;69044;48.198;11.468;2023-11-22T10:22:43;4.00;;;2.40;;
79574;SDS011;69044;48.198;11.468;2023-11-22T10:25:11;5.40;;;2.47;;
79574;SDS011;69044;48.198;11.468;2023-11-22T10:27:39;3.47;;;2.13;;
79574;SDS011;69044;48.198;11.468;2023-11-22T10:30:06;3.75;;;2.20;;
79574;SDS011;69044;48.198;11.468;2023-11-22T10:32:36;4.85;;;2.28;;
79574;SDS011;69044;48.198;11.468;2023-11-22T10:35:06;4.05;;;2.33;;
79574;SDS011;69044;48.198;11.468;2023-11-22T10:37:34;3.78;;;2.03;;
79574;SDS011;69044;48.198;11.468;2023-11-22T10:40:02;17.90;;;5.93;;
79574;SDS011;69044;48.198;11.468;2023-11-22T10:42:31;4.72;;;2.63;;
79574;SDS011;69044;48.198;11.468;2023-11-22T10:44:58;6.13;;;2.63;;
79574;SDS011;69044;48.198;11.468;2023-11-22T10:47:29;4.18;;;2.50;;
79574;SDS011;69044;48.198;11.468;2023-11-22T10:49:56;4.45;;;2.40;;
79574;SDS011;69044;48.198;11.468;2023-11-22T10:52:28;4.88;;;2.42;;
79574;SDS011;69044;48.198;11.468;2023-11-22T10:54:59;4.15;;;2.20;;
79574;SDS011;69044;48.198;11.468;2023-11-22T10:57:29;4.75;;;2.25;;
79574;SDS011;69044;48.198;11.468;2023-11-22T10:59:59;3.47;;;2.00;;
79574;SDS011;69044;48.198;11.468;2023-11-22T11:02:31;4.00;;;2.20;;
79574;SDS011;69044;48.198;11.468;2023-11-22T11:05:03;4.50;;;2.30;;
79574;SDS011;69044;48.198;11.468;2023-11-22T11:07:40;5.22;;;2.58;;
79574;SDS011;69044;48.198;11.468;2023-11-22T11:10:07;3.47;;;2.17;;
79574;SDS011;69044;48.198;11.468;2023-11-22T11:12:35;3.20;;;2.10;;
79574;SDS011;69044;48.198;11.468;2023-11-22T11:15:03;5.13;;;2.53;;
79574;SDS011;69044;48.198;11.468;2023-11-22T11:17:31;5.28;;;2.33;;
79574;SDS011;69044;48.198;11.468;2023-11-22T11:19:58;3.80;;;2.35;;
79574;SDS011;69044;48.198;11.468;2023-11-22T11:22:26;5.10;;;2.50;;
79574;SDS011;69044;48.198;11.468;2023-11-22T11:25:01;4.88;;;2.60;;
79574;SDS011;69044;48.198;11.468;2023-11-22T11:27:32;5.22;;;2.75;;
79574;SDS011;69044;48.198;11.468;2023-11-22T11:30:00;5.72;;;2.83;;
79574;SDS011;69044;48.198;11.468;2023-11-22T11:32:30;3.92;;;2.10;;
79574;SDS011;69044;48.198;11.468;2023-11-22T11:34:57;3.80;;;2.55;;
79574;SDS011;69044;48.198;11.468;2023-11-22T11:37:25;4.40;;;2.53;;
79574;SDS011;69044;48.198;11.468;2023-11-22T11:39:56;4.45;;;2.47;;
79574;SDS011;69044;48.198;11.468;2023-11-22T11:45:05;4.22;;;2.55;;
79574;SDS011;69044;48.198;11.468;2023-11-22T11:47:34;4.93;;;2.53;;
79574;SDS011;69044;48.198;11.468;2023-11-22T11:50:04;4.63;;;2.40;;
79574;SDS011;69044;48.198;11.468;2023-11-22T11:52:32;4.00;;;2.20;;
79574;SDS011;69044;48.198;11.468;2023-11-22T11:55:01;4.82;;;2.50;;
79574;SDS011;69044;48.198;11.468;2023-11-22T11:57:31;5.75;;;2.67;;
79574;SDS011;69044;48.198;11.468;2023-11-22T11:59:58;4.53;;;2.50;;
79574;SDS011;69044;48.198;11.468;2023-11-22T12:02:26;4.20;;;2.50;;
79574;SDS011;69044;48.198;11.468;2023-11-22T12:04:53;5.32;;;2.60;;
79574;SDS011;69044;48.198;11.468;2023-11-22T12:07:20;4.25;;;2.15;;
79574;SDS011;69044;48.198;11.468;2023-11-22T12:09:47;3.90;;;2.25;;
79574;SDS011;69044;48.198;11.468;2023-11-22T12:12:14;4.32;;;2.50;;
79574;SDS011;69044;48.198;11.468;2023-11-22T12:14:43;4.13;;;2.40;;
79574;SDS011;69044;48.198;11.468;2023-11-22T12:17:10;4.15;;;2.35;;
79574;SDS011;69044;48.198;11.468;2023-11-22T12:19:38;4.57;;;2.50;;
79574;SDS011;69044;48.198;11.468;2023-11-22T12:22:05;5.38;;;2.70;;
79574;SDS011;69044;48.198;11.468;2023-11-22T12:24:33;3.25;;;2.03;;
79574;SDS011;69044;48.198;11.468;2023-11-22T12:27:00;4.20;;;2.50;;
79574;SDS011;69044;48.198;11.468;2023-11-22T12:29:28;4.22;;;2.70;;
79574;SDS011;69044;48.198;11.468;2023-11-22T12:31:56;4.20;;;2.40;;
79574;SDS011;69044;48.198;11.468;2023-11-22T12:36:51;5.35;;;2.70;;
79574;SDS011;69044;48.198;11.468;2023-11-22T12:39:19;5.38;;;2.72;;
79574;SDS011;69044;48.198;11.468;2023-11-22T12:41:47;3.58;;;2.17;;
79574;SDS011;69044;48.198;11.468;2023-11-22T12:44:17;4.70;;;2.50;;
79574;SDS011;69044;48.198;11.468;2023-11-22T12:46:45;6.53;;;3.25;;
79574;SDS011;69044;48.198;11.468;2023-11-22T12:49:16;3.88;;;2.20;;
79574;SDS011;69044;48.198;11.468;2023-11-22T12:51:48;7.60;;;3.17;;
79574;SDS011;69044;48.198;11.468;2023-11-22T12:54:15;4.30;;;2.17;;
79574;SDS011;69044;48.198;11.468;2023-11-22T12:56:45;4.90;;;2.63;;
79574;SDS011;69044;48.198;11.468;2023-11-22T12:59:14;5.35;;;3.00;;
79574;SDS011;69044;48.198;11.468;2023-11-22T13:01:42;4.30;;;2.55;;
79574;SDS011;69044;48.198;11.468;2023-11-22T13:04:09;5.03;;;2.30;;
79574;SDS011;69044;48.198;11.468;2023-11-22T13:06:38;4.28;;;2.67;;
79574;SDS011;69044;48.198;11.468;2023-11-22T13:09:05;4.40;;;2.63;;
79574;SDS011;69044;48.198;11.468;2023-11-22T13:11:33;4.53;;;2.58;;
79574;SDS011;69044;48.198;11.468;2023-11-22T13:14:00;4.70;;;2.63;;
79574;SDS011;69044;48.198;11.468;2023-11-22T13:16:28;4.80;;;2.67;;
79574;SDS011;69044;48.198;11.468;2023-11-22T13:18:55;3.47;;;2.15;;
79574;SDS011;69044;48.198;11.468;2023-11-22T13:21:22;3.63;;;2.15;;
79574;SDS011;69044;48.198;11.468;2023-11-22T13:23:51;4.25;;;2.35;;
79574;SDS011;69044;48.198;11.468;2023-11-22T13:26:18;4.07;;;2.60;;
79574;SDS011;69044;48.198;11.468;2023-11-22T13:28:45;4.25;;;2.38;;
79574;SDS011;69044;48.198;11.468;2023-11-22T13:31:12;4.75;;;2.65;;
79574;SDS011;69044;48.198;11.468;2023-11-22T13:33:40;4.97;;;2.70;;
79574;SDS011;69044;48.198;11.468;2023-11-22T13:36:09;3.83;;;2.28;;
79574;SDS011;69044;48.198;11.468;2023-11-22T13:38:39;5.72;;;2.95;;
79574;SDS011;69044;48.198;11.468;2023-11-22T13:41:08;6.47;;;2.67;;
79574;SDS011;69044;48.198;11.468;2023-11-22T13:43:35;6.30;;;3.15;;
79574;SDS011;69044;48.198;11.468;2023-11-22T13:46:02;4.65;;;2.55;;
79574;SDS011;69044;48.198;11.468;2023-11-22T13:48:30;4.38;;;2.80;;
79574;SDS011;69044;48.198;11.468;2023-11-22T13:50:58;5.57;;;3.30;;
79574;SDS011;69044;48.198;11.468;2023-11-22T13:53:25;4.25;;;2.53;;
79574;SDS011;69044;48.198;11.468;2023-11-22T13:55:56;3.67;;;2.40;;
79574;SDS011;69044;48.198;11.468;2023-11-22T13:58:25;4.35;;;2.60;;
79574;SDS011;69044;48.198;11.468;2023-11-22T14:00:52;4.82;;;2.72;;
79574;SDS011;69044;48.198;11.468;2023-11-22T14:03:20;4.05;;;2.42;;
79574;SDS011;69044;48.198;11.468;2023-11-22T14:05:47;4.78;;;2.70;;
79574;SDS011;69044;48.198;11.468;2023-11-22T14:08:14;4.63;;;2.20;;
79574;SDS011;69044;48.198;11.468;2023-11-22T14:10:42;4.60;;;2.42;;
79574;SDS011;69044;48.198;11.468;2023-11-22T14:15:39;9.77;;;3.40;;
79574;SDS011;69044;48.198;11.468;2023-11-22T14:18:06;4.40;;;2.53;;
79574;SDS011;69044;48.198;11.468;2023-11-22T14:20:33;4.95;;;2.50;;
79574;SDS011;69044;48.198;11.468;2023-11-22T14:23:01;3.85;;;2.35;;
79574;SDS011;69044;48.198;11.468;2023-11-22T14:25:28;4.72;;;2.78;;
79574;SDS011;69044;48.198;11.468;2023-11-22T14:27:55;6.10;;;2.63;;
79574;SDS011;69044;48.198;11.468;2023-11-22T14:30:23;6.63;;;2.97;;
79574;SDS011;69044;48.198;11.468;2023-11-22T14:32:55;4.75;;;2.53;;
79574;SDS011;69044;48.198;11.468;2023-11-22T14:35:24;4.40;;;2.40;;
79574;SDS011;69044;48.198;11.468;2023-11-22T14:37:51;4.35;;;2.70;;
79574;SDS011;69044;48.198;11.468;2023-11-22T14:40:19;4.95;;;2.72;;
79574;SDS011;69044;48.198;11.468;2023-11-22T14:42:46;4.18;;;2.72;;
79574;SDS011;69044;48.198;11.468;2023-11-22T14:45:14;4.72;;;2.78;;
79574;SDS011;69044;48.198;11.468;2023-11-22T14:47:42;6.40;;;2.97;;
79574;SDS011;69044;48.198;11.468;2023-11-22T14:50:12;6.30;;;3.08;;
79574;SDS011;69044;48.198;11.468;2023-11-22T14:52:41;4.88;;;2.60;;
79574;SDS011;69044;48.198;11.468;2023-11-22T14:55:10;5.72;;;2.95;;
79574;SDS011;69044;48.198;11.468;2023-11-22T14:57:38;4.00;;;2.53;;
79574;SDS011;69044;48.198;11.468;2023-11-22T15:00:05;4.38;;;2.58;;
79574;SDS011;69044;48.198;11.468;2023-11-22T15:02:35;4.50;;;2.90;;
79574;SDS011;69044;48.198;11.468;2023-11-22T15:05:02;6.55;;;2.83;;